Home > Products > Valid Products > TAF

000
FTUS45 KRIW 291200 AAA
TAFWRL
TAF AMD
KWRL 291204Z 2912/3012 34010KT P6SM -SHRA SCT008 BKN040
      TEMPO 2912/2914 BKN008
     FM291600 15006KT P6SM SCT050 BKN080
     FM300900 16006KT P6SM SCT080=



000
FTUS45 KRIW 291200 AAA
TAFJAC
TAF AMD
KJAC 291203Z 2912/3012 VRB04KT 5SM BR OVC003
     FM291300 36006KT 2SM BR OVC003
      TEMPO 2914/2915 3/4SM BR
     FM291500 VRB05KT P6SM SCT040 BKN060
     FM292100 VRB05KT P6SM VCSH SCT045 BKN070
     FM300100 VRB05KT P6SM BKN060
     FM300600 36006KT P6SM VCFG SCT004 SCT060
      AMD LTD TO CLD VIS AND WIND=



000
FTUS45 KRIW 291200 AAA
TAFJAC
TAF AMD
KJAC 291203Z 2912/3012 VRB04KT 5SM BR OVC003
     FM291300 36006KT 2SM BR OVC003
      TEMPO 2914/2915 3/4SM BR
     FM291500 VRB05KT P6SM SCT040 BKN060
     FM292100 VRB05KT P6SM VCSH SCT045 BKN070
     FM300100 VRB05KT P6SM BKN060
     FM300600 36006KT P6SM VCFG SCT004 SCT060
      AMD LTD TO CLD VIS AND WIND=



000
FTUS45 KRIW 291100
TAFBPI
TAF
KBPI 291129Z 2912/3012 VRB05KT P6SM SCT030
     FM292100 21007KT P6SM VCSH BKN050
     FM300200 34008KT P6SM SCT080=



000
FTUS45 KRIW 291100
TAFCOD
TAF
KCOD 291129Z 2912/3012 36007KT P6SM VCSH BKN012
     FM291500 VRB04KT P6SM SCT024 OVC040
     FM292100 13007KT P6SM SCT040 BKN060
     FM300300 18005KT P6SM SCT050 BKN080
     FM300900 20006KT P6SM SCT080
      AMD LTD TO CLD VIS AND WIND=



000
FTUS45 KRIW 291100
TAFRKS
TAF
KRKS 291129Z 2912/3012 06008KT P6SM BKN040
     FM291800 10010KT P6SM VCSH SCT040 BKN060
     FM300000 10010KT P6SM BKN060
     FM300500 VRB05KT P6SM VCFG FEW005 SCT040=



000
FTUS45 KRIW 291100
TAFLND
TAF
KLND 291129Z 2912/3012 VRB04KT P6SM -RA SCT028 BKN035
     FM291800 VRB04KT P6SM VCSH SCT030 BKN050
     FM300200 VRB04KT P6SM SCT040 BKN060
     FM300900 VRB04KT P6SM SCT030=



000
FTUS45 KRIW 291100
TAFBPI
TAF
KBPI 291129Z 2912/3012 VRB05KT P6SM SCT030
     FM292100 21007KT P6SM VCSH BKN050
     FM300200 34008KT P6SM SCT080=



000
FTUS45 KRIW 291100
TAFJAC
TAF
KJAC 291129Z 2912/3012 VRB04KT 1/2SM FG OVC002
     FM291400 36006KT 2SM BR SCT003
      TEMPO 2914/2915 3/4SM BR BKN003
     FM291500 VRB05KT P6SM SCT040 BKN060
     FM292100 VRB05KT P6SM VCSH SCT045 BKN070
     FM300100 VRB05KT P6SM BKN060
     FM300600 36006KT P6SM VCFG SCT004 SCT060
      AMD LTD TO CLD VIS AND WIND=



000
FTUS45 KRIW 291100
TAFWRL
TAF
KWRL 291129Z 2912/3012 34010KT P6SM -SHRA SCT012 BKN020
     FM291600 15006KT P6SM SCT050 BKN080
     FM300900 16006KT P6SM SCT080=



000
FTUS45 KRIW 291100
TAFRIW
TAF
KRIW 291129Z 2912/3012 01006KT P6SM -RA OVC028
     FM291800 09006KT P6SM SCT030 BKN050
     FM300300 16006KT P6SM SCT050 BKN080
     FM300900 VRB05KT P6SM VCFG SCT005=



000
FTUS45 KRIW 291100
TAFCPR
TAF
KCPR 291129Z 2912/3012 31006KT P6SM -RA BKN016
     FM291600 01007KT P6SM -RA OVC025
     FM292100 03006KT P6SM VCSH OVC030
     FM300100 09008KT P6SM OVC035
     FM300600 23006KT P6SM VCFG SCT006=



000
FTUS45 KRIW 291100
TAFCOD
TAF
KCOD 291129Z 2912/3012 36007KT P6SM VCSH BKN012
     FM291500 VRB04KT P6SM SCT024 OVC040
     FM292100 13007KT P6SM SCT040 BKN060
     FM300300 18005KT P6SM SCT050 BKN080
     FM300900 20006KT P6SM SCT080
      AMD LTD TO CLD VIS AND WIND=



000
FTUS45 KRIW 290900 AAA
TAFRIW
TAF AMD
KRIW 290954Z 2910/3006 36008KT P6SM -SHRA OVC028
     FM291500 01006KT P6SM VCSH OVC028
     FM291800 09006KT P6SM SCT030 BKN050
     FM300300 16006KT P6SM SCT050 BKN080=



000
FTUS45 KRIW 290900 AAA
TAFRIW
TAF AMD
KRIW 290954Z 2910/3006 36008KT P6SM -SHRA OVC028
     FM291500 01006KT P6SM VCSH OVC028
     FM291800 09006KT P6SM SCT030 BKN050
     FM300300 16006KT P6SM SCT050 BKN080=



000
FTUS45 KRIW 290900 AAB
TAFJAC
TAF AMD
KJAC 290922Z 2909/3006 36006KT 1SM BR SCT003 BKN035
      TEMPO 2909/2912 1/2SM FG BKN003
     FM291500 VRB05KT P6SM SCT020 BKN050
     FM292100 VRB05KT P6SM VCSH SCT045 BKN070
     FM300100 VRB05KT P6SM BKN060
      AMD LTD TO CLD VIS AND WIND=



000
FTUS45 KRIW 290900 AAA
TAFJAC
TAF AMD
KJAC 290902Z 2909/3006 36006KT 3SM BR SCT002 BKN035
      TEMPO 2909/2912 1 1/2SM BR SCT002 BKN030
     FM292100 VRB05KT P6SM VCSH SCT045 BKN070
     FM300100 VRB05KT P6SM BKN060
      AMD LTD TO CLD VIS AND WIND=



000
FTUS45 KRIW 290800 AAB
TAFWRL
TAF AMD
KWRL 290857Z 2909/3006 34010KT P6SM -SHRA BKN018
     FM291600 15006KT P6SM SCT050 BKN080=



000
FTUS45 KRIW 290800 AAB
TAFWRL
TAF AMD
KWRL 290857Z 2909/3006 34010KT P6SM -SHRA BKN018
     FM291600 15006KT P6SM SCT050 BKN080=



000
FTUS45 KRIW 290800 AAA
TAFCOD
TAF AMD
KCOD 290856Z 2909/3006 36007KT P6SM -RA BKN015
     FM291300 VRB04KT P6SM BKN024 OVC040
     FM291800 VRB04KT P6SM SCT028 BKN040
     FM292100 13007KT P6SM SCT040 BKN060
     FM300300 18005KT P6SM SCT050 BKN080
      AMD LTD TO CLD VIS AND WIND=



000
FTUS45 KRIW 290700 AAA
TAFCPR
TAF AMD
KCPR 290722Z 2907/3006 01006KT P6SM -SHRA SCT025 BKN035
      TEMPO 2907/2909 6SM -SHRA BKN025
     FM290900 01007KT P6SM -RA OVC028
     FM292100 03006KT P6SM VCSH OVC030
     FM300100 09008KT P6SM OVC035=



000
FTUS45 KRIW 290700 AAA
TAFCPR
TAF AMD
KCPR 290722Z 2907/3006 01006KT P6SM -SHRA SCT025 BKN035
      TEMPO 2907/2909 6SM -SHRA BKN025
     FM290900 01007KT P6SM -RA OVC028
     FM292100 03006KT P6SM VCSH OVC030
     FM300100 09008KT P6SM OVC035=



000
FTUS45 KRIW 290700 AAA
TAFLND
TAF AMD
KLND 290721Z 2907/3006 VRB05KT P6SM -SHRA SCT025 BKN040
     FM291200 VRB04KT P6SM -RA BKN026
     FM291800 VRB04KT P6SM VCSH SCT030 BKN050
     FM300200 VRB04KT P6SM SCT050 BKN070=



000
FTUS45 KRIW 290700 AAA
TAFLND
TAF AMD
KLND 290721Z 2907/3006 VRB05KT P6SM -SHRA SCT025 BKN040
     FM291200 VRB04KT P6SM -RA BKN026
     FM291800 VRB04KT P6SM VCSH SCT030 BKN050
     FM300200 VRB04KT P6SM SCT050 BKN070=



000
FTUS45 KRIW 290700 AAA
TAFWRL
TAF AMD
KWRL 290720Z 2907/3006 34010KT P6SM VCSH SCT020 BKN035
      TEMPO 2907/2911 BKN020
     FM291600 15006KT P6SM SCT050 BKN080=



000
FTUS45 KRIW 290700 AAA
TAFWRL
TAF AMD
KWRL 290720Z 2907/3006 34010KT P6SM VCSH SCT020 BKN035
      TEMPO 2907/2911 BKN020
     FM291600 15006KT P6SM SCT050 BKN080=



000
FTUS45 KRIW 290500 CCA
TAFCOD
TAF COR
KCOD 290541Z 2906/3006 36007KT P6SM -RA SCT015 OVC025
     FM291300 VRB04KT P6SM BKN024 OVC040
     FM291800 VRB04KT P6SM SCT028 BKN040
     FM292100 13007KT P6SM SCT040 BKN060
     FM300300 18005KT P6SM SCT050 BKN080
      AMD LTD TO CLD VIS AND WIND=



000
FTUS45 KRIW 290500
TAFBPI
TAF
KBPI 290533Z 2906/3006 36006KT P6SM SCT050
     FM291200 VRB05KT P6SM SCT050 BKN080
     FM300200 34008KT P6SM SCT080=



000
FTUS45 KRIW 290500
TAFCOD
TAF
KCOD 290533Z 2906/3006 36007KT P6SM -RA SCT025 OVC035
     FM291300 VRB04KT P6SM SCT024 OVC040
     FM292100 13007KT P6SM SCT040 BKN060
     FM300300 18005KT P6SM SCT050 BKN080
      AMD LTD TO CLD VIS AND WIND=



000
FTUS45 KRIW 290500
TAFJAC
TAF
KJAC 290533Z 2906/3006 36006KT P6SM SCT040 BKN070
     FM292100 VRB05KT P6SM VCSH SCT045 BKN070
     FM300100 VRB05KT P6SM BKN060
      AMD LTD TO CLD VIS AND WIND=



000
FTUS45 KRIW 290500
TAFCPR
TAF
KCPR 290533Z 2906/3006 01006KT P6SM VCSH SCT025 BKN035
     FM290900 01007KT P6SM -RA OVC028
     FM292100 03006KT P6SM VCSH OVC030
     FM300100 09008KT P6SM OVC035=



000
FTUS45 KRIW 290500
TAFLND
TAF
KLND 290533Z 2906/3006 VRB05KT P6SM VCSH SCT030 BKN050
     FM291200 VRB04KT P6SM -RA BKN026
     FM291800 VRB04KT P6SM VCSH SCT030 BKN050
     FM300200 VRB04KT P6SM SCT050 BKN070=



000
FTUS45 KRIW 290500
TAFWRL
TAF
KWRL 290533Z 2906/3006 34010KT P6SM VCSH BKN050
     FM291600 15006KT P6SM SCT050 BKN080=



000
FTUS45 KRIW 290500
TAFRIW
TAF
KRIW 290533Z 2906/3006 01010KT P6SM VCSH SCT025 BKN050
     FM291200 01006KT P6SM VCSH OVC028
     FM291800 09006KT P6SM SCT030 BKN050
     FM300300 16006KT P6SM SCT050 BKN080=



000
FTUS45 KRIW 290500
TAFRKS
TAF
KRKS 290533Z 2906/3006 26010KT P6SM SCT060
     FM291200 06008KT P6SM BKN060
     FM291800 10006KT P6SM SCT060 SCT080
     FM300500 VRB05KT P6SM SCT080=



000
FTUS45 KRIW 290500
TAFBPI
TAF
KBPI 290533Z 2906/3006 36006KT P6SM SCT050
     FM291200 VRB05KT P6SM SCT050 BKN080
     FM300200 34008KT P6SM SCT080=



000
FTUS45 KRIW 290500
TAFCOD
TAF
KCOD 290533Z 2906/3006 36007KT P6SM -RA SCT025 OVC035
     FM291300 VRB04KT P6SM SCT024 OVC040
     FM292100 13007KT P6SM SCT040 BKN060
     FM300300 18005KT P6SM SCT050 BKN080
      AMD LTD TO CLD VIS AND WIND=



000
FTUS45 KRIW 290500
TAFCPR
TAF
KCPR 290533Z 2906/3006 01006KT P6SM VCSH SCT025 BKN035
     FM290900 01007KT P6SM -RA OVC028
     FM292100 03006KT P6SM VCSH OVC030
     FM300100 09008KT P6SM OVC035=



000
FTUS45 KRIW 290500
TAFJAC
TAF
KJAC 290533Z 2906/3006 36006KT P6SM SCT040 BKN070
     FM292100 VRB05KT P6SM VCSH SCT045 BKN070
     FM300100 VRB05KT P6SM BKN060
      AMD LTD TO CLD VIS AND WIND=



000
FTUS45 KRIW 290500
TAFRIW
TAF
KRIW 290533Z 2906/3006 01010KT P6SM VCSH SCT025 BKN050
     FM291200 01006KT P6SM VCSH OVC028
     FM291800 09006KT P6SM SCT030 BKN050
     FM300300 16006KT P6SM SCT050 BKN080=



000
FTUS45 KRIW 290500
TAFLND
TAF
KLND 290533Z 2906/3006 VRB05KT P6SM VCSH SCT030 BKN050
     FM291200 VRB04KT P6SM -RA BKN026
     FM291800 VRB04KT P6SM VCSH SCT030 BKN050
     FM300200 VRB04KT P6SM SCT050 BKN070=



000
FTUS45 KRIW 290500
TAFRKS
TAF
KRKS 290533Z 2906/3006 26010KT P6SM SCT060
     FM291200 06008KT P6SM BKN060
     FM291800 10006KT P6SM SCT060 SCT080
     FM300500 VRB05KT P6SM SCT080=



000
FTUS45 KRIW 290500
TAFWRL
TAF
KWRL 290533Z 2906/3006 34010KT P6SM VCSH BKN050
     FM291600 15006KT P6SM SCT050 BKN080=



000
FTUS45 KRIW 282300
TAFLND
TAF
KLND 282325Z 2900/2924 31007KT P6SM -SHRA VCTS SCT040 BKN060CB
     FM290300 33007KT P6SM -SHRA SCT030 OVC040
     FM290600 33007KT P6SM VCSH FEW008 SCT015 BKN030
     FM292200 07009KT P6SM VCSH BKN040=



000
FTUS45 KRIW 282300
TAFRKS
TAF
KRKS 282325Z 2900/2924 23012KT P6SM VCTS SCT040 BKN060CB
     FM290200 26010KT P6SM VCSH SCT050 BKN080
     FM291000 VRB06KT P6SM SCT030 OVC050
     FM292000 21008KT P6SM BKN080=



000
FTUS45 KRIW 282300
TAFJAC
TAF
KJAC 282325Z 2900/2924 21009KT P6SM -SHRA VCTS SCT030 BKN060CB
     FM290400 34008KT P6SM SCT030 BKN060
     FM291800 18010KT P6SM VCSH SCT080
      AMD LTD TO CLD VIS AND WIND=



000
FTUS45 KRIW 282300
TAFWRL
TAF
KWRL 282325Z 2900/2924 36011KT P6SM VCTS SCT035 BKN070CB
     FM290200 35010KT P6SM BKN070
     FM290600 32006KT P6SM -SHRA OVC035
     FM292100 06007KT P6SM VCSH BKN060=



000
FTUS45 KRIW 282300
TAFRIW
TAF
KRIW 282325Z 2900/2924 02010KT P6SM VCTS SCT040 BKN070CB
     FM290300 34008KT P6SM -SHRA BKN030 OVC040
     FM290600 33007KT P6SM VCSH FEW008 SCT015 OVC030
     FM292200 04008KT P6SM VCSH BKN045=



000
FTUS45 KRIW 282300
TAFBPI
TAF
KBPI 282325Z 2900/2924 VRB06KT P6SM VCTS SCT035CB BKN050
     FM290300 33008KT P6SM SCT050 BKN080
     FM291800 33008KT P6SM VCSH BKN060=



000
FTUS45 KRIW 282300
TAFCPR
TAF
KCPR 282325Z 2900/2924 02011KT P6SM -SHRA VCTS SCT040CB BKN070
     FM290400 03008KT P6SM -SHRA SCT035 BKN060
     FM290800 VRB05KT P6SM VCSH OVC030
     FM292200 03010KT P6SM VCSH BKN050=



000
FTUS45 KRIW 282300
TAFCOD
TAF
KCOD 282325Z 2900/2924 36011KT P6SM VCTS SCT035 BKN060CB
     FM290200 35008KT P6SM VCSH BKN060
     FM290600 34007KT P6SM VCSH OVC035
     FM291900 04007KT P6SM VCSH BKN050
      AMD LTD TO CLD VIS AND WIND=



000
FTUS45 KRIW 282300
TAFLND
TAF
KLND 282325Z 2900/2924 31007KT P6SM -SHRA VCTS SCT040 BKN060CB
     FM290300 33007KT P6SM -SHRA SCT030 OVC040
     FM290600 33007KT P6SM VCSH FEW008 SCT015 BKN030
     FM292200 07009KT P6SM VCSH BKN040=



000
FTUS45 KRIW 282300
TAFRKS
TAF
KRKS 282325Z 2900/2924 23012KT P6SM VCTS SCT040 BKN060CB
     FM290200 26010KT P6SM VCSH SCT050 BKN080
     FM291000 VRB06KT P6SM SCT030 OVC050
     FM292000 21008KT P6SM BKN080=



000
FTUS45 KRIW 282300
TAFWRL
TAF
KWRL 282325Z 2900/2924 36011KT P6SM VCTS SCT035 BKN070CB
     FM290200 35010KT P6SM BKN070
     FM290600 32006KT P6SM -SHRA OVC035
     FM292100 06007KT P6SM VCSH BKN060=



000
FTUS45 KRIW 282300
TAFCPR
TAF
KCPR 282325Z 2900/2924 02011KT P6SM -SHRA VCTS SCT040CB BKN070
     FM290400 03008KT P6SM -SHRA SCT035 BKN060
     FM290800 VRB05KT P6SM VCSH OVC030
     FM292200 03010KT P6SM VCSH BKN050=



000
FTUS45 KRIW 282300
TAFBPI
TAF
KBPI 282325Z 2900/2924 VRB06KT P6SM VCTS SCT035CB BKN050
     FM290300 33008KT P6SM SCT050 BKN080
     FM291800 33008KT P6SM VCSH BKN060=



000
FTUS45 KRIW 282300
TAFJAC
TAF
KJAC 282325Z 2900/2924 21009KT P6SM -SHRA VCTS SCT030 BKN060CB
     FM290400 34008KT P6SM SCT030 BKN060
     FM291800 18010KT P6SM VCSH SCT080
      AMD LTD TO CLD VIS AND WIND=



000
FTUS45 KRIW 282300
TAFRIW
TAF
KRIW 282325Z 2900/2924 02010KT P6SM VCTS SCT040 BKN070CB
     FM290300 34008KT P6SM -SHRA BKN030 OVC040
     FM290600 33007KT P6SM VCSH FEW008 SCT015 OVC030
     FM292200 04008KT P6SM VCSH BKN045=



000
FTUS45 KRIW 282300
TAFCOD
TAF
KCOD 282325Z 2900/2924 36011KT P6SM VCTS SCT035 BKN060CB
     FM290200 35008KT P6SM VCSH BKN060
     FM290600 34007KT P6SM VCSH OVC035
     FM291900 04007KT P6SM VCSH BKN050
      AMD LTD TO CLD VIS AND WIND=



000
FTUS45 KRIW 281900 AAA
TAFWRL
TAF AMD
KWRL 281952Z 2820/2918 VRB06KT P6SM -SHRA SCT030 BKN050
     FM282030 34011KT P6SM VCTS SCT035 BKN070CB
     FM290200 35010KT P6SM BKN070
     FM290600 32006KT P6SM -SHRA OVC035=



000
FTUS45 KRIW 281900 AAA
TAFWRL
TAF AMD
KWRL 281952Z 2820/2918 VRB06KT P6SM -SHRA SCT030 BKN050
     FM282030 34011KT P6SM VCTS SCT035 BKN070CB
     FM290200 35010KT P6SM BKN070
     FM290600 32006KT P6SM -SHRA OVC035=



000
FTUS45 KRIW 281700 AAA
TAFCPR
TAF AMD
KCPR 281758Z 2818/2918 24009KT P6SM VCSH SCT050 BKN080
      TEMPO 2818/2819 6SM -SHRA BKN035 BKN080
     FM281900 VRB12G18KT P6SM -SHRA VCTS SCT040CB BKN070
     FM290400 03008KT P6SM -SHRA SCT035 BKN060
     FM290800 VRB05KT P6SM VCSH OVC030=



000
FTUS45 KRIW 281700 AAA
TAFCPR
TAF AMD
KCPR 281758Z 2818/2918 24009KT P6SM VCSH SCT050 BKN080
      TEMPO 2818/2819 6SM -SHRA BKN035 BKN080
     FM281900 VRB12G18KT P6SM -SHRA VCTS SCT040CB BKN070
     FM290400 03008KT P6SM -SHRA SCT035 BKN060
     FM290800 VRB05KT P6SM VCSH OVC030=



000
FTUS45 KRIW 281700 AAA
TAFBPI
TAF AMD
KBPI 281755Z 2818/2918 VRB07G15KT P6SM VCTS SCT035CB BKN050
      TEMPO 2818/2821 2SM TSRA BKN025CB
     FM290300 33008KT P6SM SCT050 BKN080=



000
FTUS45 KRIW 281700
TAFCPR
TAF
KCPR 281725Z 2818/2918 29009KT P6SM VCSH SCT050 BKN080
     FM281900 VRB12G18KT P6SM VCTS SCT040 BKN070CB
     FM290400 03008KT P6SM -SHRA SCT035 BKN060
     FM290800 VRB05KT P6SM VCSH OVC030=



000
FTUS45 KRIW 281700
TAFWRL
TAF
KWRL 281725Z 2818/2918 VRB06KT P6SM -SHRA SCT030 BKN050
     FM282200 34011KT P6SM VCTS SCT035 BKN070CB
     FM290200 35010KT P6SM BKN070
     FM290600 32006KT P6SM -SHRA OVC035=



000
FTUS45 KRIW 281700
TAFRIW
TAF
KRIW 281725Z 2818/2918 32006KT P6SM SCT080 BKN150
     FM281900 33009KT P6SM -SHRA SCT040 BKN060
     FM282100 VRB10G17KT P6SM -SHRA VCTS SCT040 BKN070CB
     FM290200 34008KT P6SM -SHRA BKN030 OVC040
     FM290600 02007KT P6SM VCSH FEW008 SCT015 OVC030=



000
FTUS45 KRIW 281700
TAFJAC
TAF
KJAC 281725Z 2818/2918 VRB05KT P6SM VCSH SCT025 OVC040
      TEMPO 2818/2820 -SHRA
     FM282000 21009KT P6SM -SHRA VCTS SCT030 BKN060CB
     FM290200 34008KT P6SM SCT030 BKN060
      AMD LTD TO CLD VIS AND WIND=



000
FTUS45 KRIW 281700
TAFCOD
TAF
KCOD 281725Z 2818/2918 01007KT P6SM -SHRA BKN050
     FM282000 02009KT P6SM VCTS SCT035 BKN060CB
     FM290200 35008KT P6SM VCSH BKN060
     FM290600 34007KT P6SM VCSH OVC035
      AMD LTD TO CLD VIS AND WIND=



000
FTUS45 KRIW 281700
TAFBPI
TAF
KBPI 281725Z 2818/2918 VRB07G15KT P6SM VCTS SCT035CB BKN050
     FM290300 33008KT P6SM SCT050 BKN080=



000
FTUS45 KRIW 281700
TAFRKS
TAF
KRKS 281725Z 2818/2918 25011KT P6SM VCSH SCT035 SCT060
     FM281900 27012G18KT P6SM -SHRA VCTS SCT040 BKN060CB
     FM290200 26010KT P6SM VCSH SCT050 BKN080
     FM291000 VRB06KT P6SM SCT030 OVC050=



000
FTUS45 KRIW 281700
TAFLND
TAF
KLND 281725Z 2818/2918 VRB06KT P6SM VCSH SCT050 BKN070
     FM281900 VRB11G18KT P6SM -SHRA VCTS SCT040 BKN060CB
     FM290200 33007KT P6SM -SHRA SCT030 OVC040
     FM290600 33007KT P6SM VCSH FEW008 SCT015 BKN030=



000
FTUS45 KRIW 281200 AAA
TAFJAC
TAF AMD
KJAC 281244Z 2813/2912 VRB06KT 6SM -SHRA BR SCT006 BKN024
     FM281600 VRB05KT P6SM VCSH SCT025 OVC040
      TEMPO 2816/2820 -SHRA
     FM282000 21009KT P6SM -SHRA VCTS SCT030 BKN060CB
     FM290200 34008KT P6SM SCT030 BKN060
      AMD LTD TO CLD VIS AND WIND=



000
FTUS45 KRIW 281200 AAA
TAFJAC
TAF AMD
KJAC 281244Z 2813/2912 VRB06KT 6SM -SHRA BR SCT006 BKN024
     FM281600 VRB05KT P6SM VCSH SCT025 OVC040
      TEMPO 2816/2820 -SHRA
     FM282000 21009KT P6SM -SHRA VCTS SCT030 BKN060CB
     FM290200 34008KT P6SM SCT030 BKN060
      AMD LTD TO CLD VIS AND WIND=



000
FTUS45 KRIW 281100
TAFCOD
TAF
KCOD 281121Z 2812/2912 VRB06KT P6SM VCSH BKN060
     FM281600 01007KT P6SM -SHRA BKN050
     FM282100 02009KT P6SM VCTS SCT035 BKN060CB
     FM290200 35008KT P6SM VCSH BKN060
     FM290600 34007KT P6SM VCSH OVC035
      AMD LTD TO CLD VIS AND WIND=



000
FTUS45 KRIW 281100
TAFCPR
TAF
KCPR 281121Z 2812/2912 24007KT P6SM SCT080 BKN150
     FM281800 29009KT P6SM VCSH SCT050 BKN080
     FM282000 01010KT P6SM -SHRA BKN050
     FM282300 VRB12G18KT P6SM VCTS SCT040 BKN070CB
     FM290400 03008KT P6SM VCSH SCT035 BKN060
     FM290800 VRB05KT P6SM VCSH OVC030=



000
FTUS45 KRIW 281100
TAFJAC
TAF
KJAC 281121Z 2812/2912 VRB05KT P6SM VCSH SCT030 OVC050
      TEMPO 2818/2820 -SHRA
     FM282000 21009KT P6SM -SHRA VCTS SCT030 BKN060CB
     FM290200 34008KT P6SM SCT030 BKN060
      AMD LTD TO CLD VIS AND WIND=



000
FTUS45 KRIW 281100
TAFBPI
TAF
KBPI 281121Z 2812/2912 36007KT P6SM VCSH SCT035 BKN060
     FM281800 29011G17KT P6SM -SHRA SCT035 BKN050
     FM282100 29011G17KT P6SM VCTS SCT035 BKN070CB
     FM290300 33008KT P6SM SCT050 BKN080=



000
FTUS45 KRIW 281100
TAFRIW
TAF
KRIW 281121Z 2812/2912 32006KT P6SM SCT080 BKN150
     FM281900 33009KT P6SM -SHRA SCT040 BKN060
     FM282100 VRB10G17KT P6SM -SHRA VCTS SCT040 BKN070CB
     FM290200 34008KT P6SM -SHRA BKN030 OVC040
     FM290600 02007KT P6SM VCSH FEW008 SCT015 OVC030=



000
FTUS45 KRIW 281100
TAFRKS
TAF
KRKS 281121Z 2812/2912 25011KT P6SM VCSH SCT035 SCT060
     FM282000 27012G18KT P6SM -SHRA VCTS SCT040 BKN060CB
     FM290200 26010KT P6SM VCSH SCT050 BKN080
     FM291000 VRB06KT P6SM SCT030 OVC050=



000
FTUS45 KRIW 281100
TAFWRL
TAF
KWRL 281121Z 2812/2912 VRB06KT P6SM SCT060 BKN090
     FM282200 34011KT P6SM VCTS SCT035 BKN070CB
     FM290200 35010KT P6SM BKN070
     FM290600 32006KT P6SM -SHRA OVC035=



000
FTUS45 KRIW 281100
TAFLND
TAF
KLND 281121Z 2812/2912 26006KT P6SM SCT080 BKN150
     FM281700 VRB06KT P6SM VCSH SCT050 BKN070
     FM282000 26011KT P6SM -SHRA VCTS SCT040 BKN060CB
     FM290200 33007KT P6SM -SHRA SCT030 OVC040
     FM290600 33007KT P6SM VCSH FEW008 SCT015 BKN030=



000
FTUS45 KRIW 281100
TAFRIW
TAF
KRIW 281121Z 2812/2912 32006KT P6SM SCT080 BKN150
     FM281900 33009KT P6SM -SHRA SCT040 BKN060
     FM282100 VRB10G17KT P6SM -SHRA VCTS SCT040 BKN070CB
     FM290200 34008KT P6SM -SHRA BKN030 OVC040
     FM290600 02007KT P6SM VCSH FEW008 SCT015 OVC030=



000
FTUS45 KRIW 281100
TAFWRL
TAF
KWRL 281121Z 2812/2912 VRB06KT P6SM SCT060 BKN090
     FM282200 34011KT P6SM VCTS SCT035 BKN070CB
     FM290200 35010KT P6SM BKN070
     FM290600 32006KT P6SM -SHRA OVC035=



000
FTUS45 KRIW 281100
TAFLND
TAF
KLND 281121Z 2812/2912 26006KT P6SM SCT080 BKN150
     FM281700 VRB06KT P6SM VCSH SCT050 BKN070
     FM282000 26011KT P6SM -SHRA VCTS SCT040 BKN060CB
     FM290200 33007KT P6SM -SHRA SCT030 OVC040
     FM290600 33007KT P6SM VCSH FEW008 SCT015 BKN030=



000
FTUS45 KRIW 281100
TAFRKS
TAF
KRKS 281121Z 2812/2912 25011KT P6SM VCSH SCT035 SCT060
     FM282000 27012G18KT P6SM -SHRA VCTS SCT040 BKN060CB
     FM290200 26010KT P6SM VCSH SCT050 BKN080
     FM291000 VRB06KT P6SM SCT030 OVC050=



000
FTUS45 KRIW 280800 AAA
TAFRKS
TAF AMD
KRKS 280852Z 2809/2906 25011KT P6SM VCSH SCT035 BKN060
     FM282000 27012G18KT P6SM VCTS SCT040 BKN060CB
     FM290200 26010KT P6SM VCSH SCT050 BKN080=



000
FTUS45 KRIW 280800 AAA
TAFJAC
TAF AMD
KJAC 280851Z 2809/2906 20006KT P6SM -SHRA SCT020 BKN028
     FM281100 VRB05KT P6SM VCSH SCT030 OVC050
     FM282000 21009KT P6SM VCTS SCT030 BKN060CB
     FM290200 34008KT P6SM SCT030 BKN060
      AMD LTD TO CLD VIS AND WIND=



000
FTUS45 KRIW 280500
TAFRIW
TAF
KRIW 280538Z 2806/2906 32006KT P6SM SCT080
     FM282100 VRB10G17KT P6SM VCTS SCT040 BKN070CB
     FM290200 34008KT P6SM BKN060=



000
FTUS45 KRIW 280500
TAFRKS
TAF
KRKS 280538Z 2806/2906 25011KT P6SM VCSH SCT035 BKN060
      TEMPO 2808/2810 5SM SHRA BKN030
     FM282000 27012G18KT P6SM VCTS SCT040 BKN060CB
     FM290200 26010KT P6SM VCSH SCT050 BKN080=



000
FTUS45 KRIW 280500
TAFLND
TAF
KLND 280538Z 2806/2906 26006KT P6SM SCT080
     FM281700 VRB06KT P6SM VCSH SCT050 BKN070
     FM282100 26011KT P6SM VCTS SCT040 BKN070CB
     FM290200 33007KT P6SM VCSH SCT040 BKN060=



000
FTUS45 KRIW 280500
TAFWRL
TAF
KWRL 280538Z 2806/2906 VRB06KT P6SM FEW050 SCT090
     FM282200 34011KT P6SM VCTS SCT035 BKN070CB
     FM290200 35010KT P6SM BKN070=



000
FTUS45 KRIW 280500
TAFJAC
TAF
KJAC 280538Z 2806/2906 VRB05KT P6SM -SHRA SCT020 BKN035
     FM280800 VRB05KT P6SM VCSH SCT030 OVC050
     FM282000 21009KT P6SM VCTS SCT030 BKN060CB
     FM290200 34008KT P6SM SCT030 BKN060
      AMD LTD TO CLD VIS AND WIND=



000
FTUS45 KRIW 280500
TAFRKS
TAF
KRKS 280538Z 2806/2906 25011KT P6SM VCSH SCT035 BKN060
      TEMPO 2808/2810 5SM SHRA BKN030
     FM282000 27012G18KT P6SM VCTS SCT040 BKN060CB
     FM290200 26010KT P6SM VCSH SCT050 BKN080=



000
FTUS45 KRIW 280500
TAFJAC
TAF
KJAC 280538Z 2806/2906 VRB05KT P6SM -SHRA SCT020 BKN035
     FM280800 VRB05KT P6SM VCSH SCT030 OVC050
     FM282000 21009KT P6SM VCTS SCT030 BKN060CB
     FM290200 34008KT P6SM SCT030 BKN060
      AMD LTD TO CLD VIS AND WIND=



000
FTUS45 KRIW 280500
TAFWRL
TAF
KWRL 280538Z 2806/2906 VRB06KT P6SM FEW050 SCT090
     FM282200 34011KT P6SM VCTS SCT035 BKN070CB
     FM290200 35010KT P6SM BKN070=



000
FTUS45 KRIW 280500
TAFCPR
TAF
KCPR 280538Z 2806/2906 24007KT P6SM SCT080
     FM281800 29009KT P6SM VCSH SCT050 BKN080
     FM282300 VRB12G18KT P6SM VCTS SCT040 BKN070CB
     FM290400 03008KT P6SM VCSH SCT035 BKN060=



000
FTUS45 KRIW 280500
TAFRIW
TAF
KRIW 280538Z 2806/2906 32006KT P6SM SCT080
     FM282100 VRB10G17KT P6SM VCTS SCT040 BKN070CB
     FM290200 34008KT P6SM BKN060=



000
FTUS45 KRIW 280500
TAFBPI
TAF
KBPI 280538Z 2806/2906 34007KT P6SM VCSH SCT035 BKN060
     FM282100 29011G17KT P6SM VCTS SCT035 BKN070CB
     FM290300 33008KT P6SM SCT050 BKN080=



000
FTUS45 KRIW 280500
TAFLND
TAF
KLND 280538Z 2806/2906 26006KT P6SM SCT080
     FM281700 VRB06KT P6SM VCSH SCT050 BKN070
     FM282100 26011KT P6SM VCTS SCT040 BKN070CB
     FM290200 33007KT P6SM VCSH SCT040 BKN060=



000
FTUS45 KRIW 280500
TAFBPI
TAF
KBPI 280538Z 2806/2906 34007KT P6SM VCSH SCT035 BKN060
     FM282100 29011G17KT P6SM VCTS SCT035 BKN070CB
     FM290300 33008KT P6SM SCT050 BKN080=



000
FTUS45 KRIW 280500
TAFCOD
TAF
KCOD 280538Z 2806/2906 VRB06KT P6SM VCSH BKN060
     FM282100 02009KT P6SM VCTS SCT035 BKN060CB
     FM290200 35008KT P6SM VCSH BKN060
      AMD LTD TO CLD VIS AND WIND=



000
FTUS45 KRIW 280500
TAFCPR
TAF
KCPR 280538Z 2806/2906 24007KT P6SM SCT080
     FM281800 29009KT P6SM VCSH SCT050 BKN080
     FM282300 VRB12G18KT P6SM VCTS SCT040 BKN070CB
     FM290400 03008KT P6SM VCSH SCT035 BKN060=



000
FTUS45 KRIW 280500
TAFCOD
TAF
KCOD 280538Z 2806/2906 VRB06KT P6SM VCSH BKN060
     FM282100 02009KT P6SM VCTS SCT035 BKN060CB
     FM290200 35008KT P6SM VCSH BKN060
      AMD LTD TO CLD VIS AND WIND=



000
FTUS45 KRIW 272300
TAFRIW
TAF
KRIW 272328Z 2800/2824 VRB08KT P6SM VCTS FEW050CB BKN080
     FM280100 31006KT P6SM VCSH SCT050 BKN080
     FM280700 VRB06KT P6SM SCT070
     FM281500 VRB06KT P6SM VCSH SCT050 BKN070
     FM282100 VRB12G20KT P6SM VCTS SCT040CB BKN070=



000
FTUS45 KRIW 272300
TAFLND
TAF
KLND 272328Z 2800/2824 VRB06KT P6SM VCSH SCT070 BKN100
     FM280700 VRB06KT P6SM SCT070
     FM281500 VRB06KT P6SM VCSH SCT050 BKN070
     FM282100 VRB12G20KT P6SM VCTS SCT040CB BKN070=



000
FTUS45 KRIW 272300
TAFWRL
TAF
KWRL 272328Z 2800/2824 VRB10G16KT P6SM -TSRA SCT035 BKN060CB
     FM280130 VRB06KT P6SM VCSH SCT050 BKN080
     FM281900 VRB12G18KT P6SM VCTS SCT035CB BKN060=



000
FTUS45 KRIW 272300
TAFCOD
TAF
KCOD 272328Z 2800/2824 VRB06KT P6SM VCSH SCT050 OVC080
      AMD LTD TO CLD VIS AND WIND=



000
FTUS45 KRIW 272300
TAFRKS
TAF
KRKS 272328Z 2800/2824 26014KT P6SM VCTS SCT040 BKN060CB
     FM280200 24010KT P6SM VCSH SCT050 BKN080
     FM282000 VRB18G26KT P6SM VCTS SCT030CB BKN060=



000
FTUS45 KRIW 272300
TAFJAC
TAF
KJAC 272328Z 2800/2824 21007KT P6SM VCSH SCT040 BKN070
     FM280300 VRB05KT P6SM VCSH SCT030 BKN060
     FM281400 19008KT P6SM -SHRA SCT030 BKN050
      AMD LTD TO CLD VIS AND WIND=



000
FTUS45 KRIW 272300
TAFBPI
TAF
KBPI 272328Z 2800/2824 VRB08G15KT P6SM VCTS SCT040 OVC070CB
     FM280200 34007KT P6SM VCSH SCT030 OVC050=



000
FTUS45 KRIW 272300
TAFCPR
TAF
KCPR 272328Z 2800/2824 23008KT P6SM VCSH SCT050 BKN080
     FM280130 VRB10G18KT P6SM -TSRA SCT030 BKN060CB
     FM280300 23008KT P6SM VCSH SCT050 BKN080
     FM281800 23014G20KT P6SM VCSH SCT060
     FM282100 VRB15G25KT P6SM VCTS SCT050CB BKN070=



000
FTUS45 KRIW 272200 AAA
TAFRIW
TAF AMD
KRIW 272240Z 2723/2818 VRB10G16KT P6SM VCTS SCT040 BKN070CB
      TEMPO 2723/2724 VRB18G30KT 2SM TSRAGS BKN025CB
     FM280200 31006KT P6SM VCSH SCT050 BKN080
     FM280700 VRB06KT P6SM SCT070=



000
FTUS45 KRIW 272000 AAA
TAFRKS
TAF AMD
KRKS 272044Z 2721/2818 VRB12G18KT P6SM VCTS SCT035 BKN060CB
      TEMPO 2721/2722 VRB15G25KT 2SM TSRA
     FM280200 24010KT P6SM SCT080=



000
FTUS45 KRIW 271700
TAFJAC
TAF
KJAC 271720Z 2718/2818 20009KT P6SM VCSH SCT040 BKN070
     FM272000 VRB10G17KT P6SM VCTS SCT040 BKN060CB
     FM280300 VRB05KT P6SM VCSH SCT030 BKN060
     FM281400 19008KT P6SM -SHRA SCT030 BKN050
      AMD LTD TO CLD VIS AND WIND=



000
FTUS45 KRIW 271700
TAFCPR
TAF
KCPR 271720Z 2718/2818 24011KT P6SM SCT060 BKN100
     FM272200 VRB12G18KT P6SM VCTS SCT040 BKN070CB
     FM280400 23008KT P6SM VCSH SCT050 BKN080=



000
FTUS45 KRIW 271700
TAFRIW
TAF
KRIW 271720Z 2718/2818 VRB05KT P6SM FEW015 SCT080
     FM272000 VRB10G16KT P6SM VCTS SCT040 BKN070CB
     FM280400 31006KT P6SM VCSH SCT050 BKN080
     FM280700 VRB06KT P6SM SCT070=



000
FTUS45 KRIW 271700
TAFCOD
TAF
KCOD 271720Z 2718/2818 03008KT P6SM VCSH SCT050 BKN080
     FM272100 VRB12G18KT P6SM VCTS SCT040 BKN070CB
     FM280300 VRB06KT P6SM VCSH SCT050 OVC080
      AMD LTD TO CLD VIS AND WIND=



000
FTUS45 KRIW 271700
TAFBPI
TAF
KBPI 271720Z 2718/2818 VRB05KT P6SM VCSH SCT035 BKN070
     FM272100 VRB10G17KT P6SM VCTS SCT040 OVC060CB
     FM280200 34007KT P6SM SCT030 BKN050
     FM281000 VRB04KT P6SM VCFG SCT003 SCT015
     FM281300 VRB04KT P6SM SCT030=



000
FTUS45 KRIW 271700
TAFRKS
TAF
KRKS 271720Z 2718/2818 24012KT P6SM FEW060 SCT100
     FM272000 VRB12G18KT P6SM VCTS SCT035 BKN060CB
     FM280200 24010KT P6SM SCT080=



000
FTUS45 KRIW 271700
TAFWRL
TAF
KWRL 271720Z 2718/2818 VRB06KT P6SM FEW020 SCT080
     FM272100 VRB10G16KT P6SM VCSH SCT040 BKN080
     FM280300 VRB06KT P6SM VCSH SCT050 BKN080=



000
FTUS45 KRIW 271700
TAFLND
TAF
KLND 271720Z 2718/2818 23007KT P6SM FEW050 SCT080
     FM271900 VRB05KT P6SM VCSH SCT040 BKN080
     FM272300 VRB12G18KT P6SM VCTS SCT040 BKN070CB
     FM280300 23007KT P6SM VCSH BKN070
     FM280700 VRB06KT P6SM SCT070=



000
FTUS45 KRIW 271600 AAB
TAFJAC
TAF AMD
KJAC 271614Z 2716/2812 VRB04KT P6SM BKN050 OVC070
     FM271700 20009KT P6SM VCSH SCT030 OVC060
     FM271900 VRB10G17KT P6SM VCTS SCT040 BKN060CB
     FM280300 VRB05KT P6SM VCSH SCT030 BKN060
      AMD LTD TO CLD VIS AND WIND=



000
FTUS45 KRIW 271600 AAB
TAFJAC
TAF AMD
KJAC 271614Z 2716/2812 VRB04KT P6SM BKN050 OVC070
     FM271700 20009KT P6SM VCSH SCT030 OVC060
     FM271900 VRB10G17KT P6SM VCTS SCT040 BKN060CB
     FM280300 VRB05KT P6SM VCSH SCT030 BKN060
      AMD LTD TO CLD VIS AND WIND=



000
FTUS45 KRIW 271500 AAA
TAFJAC
TAF AMD
KJAC 271513Z 2715/2812 VRB04KT P6SM BKN006
      TEMPO 2715/2717 BKN003
     FM271700 20009KT P6SM VCSH SCT040 BKN070
     FM271900 VRB10G17KT P6SM VCTS SCT040 BKN060CB
     FM280300 VRB05KT P6SM VCSH SCT030 BKN060
      AMD LTD TO CLD VIS AND WIND=



000
FTUS45 KRIW 271200 AAA
TAFBPI
TAF AMD
KBPI 271243Z 2713/2812 36006KT P6SM VCFG SCT003 SCT028
     FM271600 VRB05KT P6SM VCSH SCT050 BKN080
     FM272000 VRB10G17KT P6SM VCTS SCT040 OVC060CB
     FM280300 34007KT P6SM VCSH SCT035 BKN060=



000
FTUS45 KRIW 271100
TAFRIW
TAF
KRIW 271124Z 2712/2812 VRB05KT P6SM FEW015 SCT080
     FM272000 VRB10G16KT P6SM VCTS SCT040 BKN070CB
     FM280400 31006KT P6SM VCSH SCT050 BKN080=



000
FTUS45 KRIW 271100
TAFCOD
TAF
KCOD 271124Z 2712/2812 19006KT P6SM BKN070
     FM271700 03008KT P6SM VCSH SCT050 BKN080
     FM272100 VRB12G18KT P6SM VCTS SCT040 BKN070CB
     FM280300 VRB06KT P6SM VCSH SCT050 OVC080
      AMD LTD TO CLD VIS AND WIND=



000
FTUS45 KRIW 271100
TAFJAC
TAF
KJAC 271124Z 2712/2812 VRB04KT 3SM BR BKN003
     FM271400 VRB04KT P6SM VCFG SCT003 BKN060
      TEMPO 2714/2715 BKN003
     FM271600 20009KT P6SM VCSH SCT040 BKN070
     FM271900 VRB10G17KT P6SM VCTS SCT040 BKN060CB
     FM280300 VRB05KT P6SM VCSH SCT030 BKN060
      AMD LTD TO CLD VIS AND WIND=



000
FTUS45 KRIW 271100
TAFBPI
TAF
KBPI 271124Z 2712/2812 01006KT P6SM VCFG SCT003 BKN028
      TEMPO 2712/2714 1SM BR BKN003
     FM271430 VRB04KT P6SM VCFG FEW010 SCT050
     FM271600 VRB05KT P6SM VCSH SCT050 BKN080
     FM272000 VRB10G17KT P6SM VCTS SCT040 OVC060CB
     FM280300 34007KT P6SM VCSH SCT035 BKN060=



000
FTUS45 KRIW 271100
TAFWRL
TAF
KWRL 271124Z 2712/2812 VRB04KT P6SM VCFG FEW005 SCT090
     FM271400 VRB06KT P6SM FEW020 SCT080
     FM272100 VRB10G16KT P6SM VCSH SCT040 BKN080
     FM280300 VRB06KT P6SM VCSH SCT050 BKN080=



000
FTUS45 KRIW 271100
TAFCPR
TAF
KCPR 271124Z 2712/2812 24011KT P6SM SCT060 BKN100
      TEMPO 2712/2713 BKN060
     FM272200 VRB12G18KT P6SM VCTS SCT040 BKN070CB
     FM280400 23008KT P6SM VCSH SCT050 BKN080=



000
FTUS45 KRIW 271100
TAFRKS
TAF
KRKS 271124Z 2712/2812 22006KT P6SM VCFG FEW005 SCT060
     FM271500 28008KT P6SM FEW060 SCT100
     FM272000 VRB12G18KT P6SM VCTS SCT035 BKN060CB
     FM280200 24007KT P6SM VCSH BKN060=



000
FTUS45 KRIW 271100
TAFLND
TAF
KLND 271124Z 2712/2812 23007KT P6SM FEW050 SCT080
     FM271700 VRB05KT P6SM VCSH SCT040 BKN080
     FM272200 VRB12G18KT P6SM VCTS SCT040 BKN070CB
     FM280300 23007KT P6SM VCSH BKN070=



000
FTUS45 KRIW 271000 AAB
TAFJAC
TAF AMD
KJAC 271051Z 2711/2806 VRB04KT 3/4SM BR BKN002
     FM271300 VRB04KT 3SM BR SCT002 BKN060
      TEMPO 2713/2714 1SM BR
     FM271600 20009KT P6SM VCSH SCT040 BKN070
     FM271900 VRB10G17KT P6SM VCTS SCT040 BKN060CB
     FM280300 VRB05KT P6SM VCSH SCT030 BKN060
      AMD LTD TO CLD VIS AND WIND=



000
FTUS45 KRIW 270900 AAA
TAFJAC
TAF AMD
KJAC 270940Z 2710/2806 VRB04KT P6SM VCFG SCT003 BKN060
      TEMPO 2710/2713 3SM BR BKN003
     FM271600 20009KT P6SM VCSH SCT040 BKN070
     FM271900 VRB10G17KT P6SM VCTS SCT040 BKN060CB
     FM280300 VRB05KT P6SM VCSH SCT030 BKN060
      AMD LTD TO CLD VIS AND WIND=



000
FTUS45 KRIW 270900 CCA
TAFBPI
TAF COR
KBPI 270925Z 2709/2806 01006KT 1SM BR SCT010
      TEMPO 2709/2713 1/2SM FG VV010
     FM271400 VRB04KT 3SM BR SCT010
     FM271600 VRB05KT P6SM VCSH SCT050 BKN080
     FM272000 VRB10G17KT P6SM VCTS SCT040 OVC060CB
     FM280300 34007KT P6SM VCSH SCT035 BKN060=



000
FTUS45 KRIW 270900 CCA
TAFBPI
TAF COR
KBPI 270925Z 2709/2806 01006KT 1SM BR SCT010
      TEMPO 2709/2713 1/2SM FG VV010
     FM271400 VRB04KT 3SM BR SCT010
     FM271600 VRB05KT P6SM VCSH SCT050 BKN080
     FM272000 VRB10G17KT P6SM VCTS SCT040 OVC060CB
     FM280300 34007KT P6SM VCSH SCT035 BKN060=



000
FTUS45 KRIW 270900 AAC
TAFBPI
TAF AMD
KBPI 270924Z 2709/2806 01006KT 2SM BR SCT010
      TEMPO 2712/2716 1SM BR
     FM271600 VRB05KT P6SM VCSH SCT050 BKN080
     FM272000 VRB10G17KT P6SM VCTS SCT040 OVC060CB
     FM280300 34007KT P6SM VCSH SCT035 BKN060=



000
FTUS45 KRIW 270900 AAB
TAFBPI
TAF AMD
KBPI 270909Z 2709/2806 01006KT P6SM VCFG BKN010
      TEMPO 2712/2716 3SM BR SCT010
     FM271600 VRB05KT P6SM VCSH SCT050 BKN080
     FM272000 VRB10G17KT P6SM VCTS SCT040 OVC060CB
     FM280300 34007KT P6SM VCSH SCT035 BKN060=



000
FTUS45 KRIW 270600 AAA
TAFBPI
TAF AMD
KBPI 270643Z 2707/2806 VRB04KT P6SM -SHRA SCT009 BKN017
     FM270730 34006KT P6SM VCSH SCT030 BKN060
     FM270900 VRB04KT P6SM VCFG FEW004 SCT080
     FM271600 VRB05KT P6SM VCSH SCT050 BKN080
     FM272000 VRB10G17KT P6SM VCTS SCT040 OVC060CB
     FM280300 34007KT P6SM VCSH SCT035 BKN060=



000
FTUS45 KRIW 270500
TAFRIW
TAF
KRIW 270537Z 2706/2806 VRB06KT P6SM VCSH SCT040 BKN060
     FM270700 VRB05KT P6SM FEW015 SCT080
     FM272000 VRB10G16KT P6SM VCTS SCT040 BKN070CB
     FM280400 31006KT P6SM VCSH SCT050 BKN080=



000
FTUS45 KRIW 270500
TAFWRL
TAF
KWRL 270537Z 2706/2806 35007KT P6SM VCSH SCT045 BKN080
     FM270900 VRB04KT P6SM VCFG FEW005 SCT090
     FM271400 VRB06KT P6SM FEW020 SCT080
     FM272100 VRB10G16KT P6SM VCSH SCT040 BKN080
     FM280300 VRB06KT P6SM VCSH SCT050 BKN080=



000
FTUS45 KRIW 270500
TAFLND
TAF
KLND 270537Z 2706/2806 23007KT P6SM FEW050 SCT080
     FM271700 VRB05KT P6SM VCSH SCT040 BKN080
     FM272200 VRB12G18KT P6SM VCTS SCT040 BKN070CB
     FM280300 23007KT P6SM VCSH BKN070=



000
FTUS45 KRIW 270500
TAFBPI
TAF
KBPI 270537Z 2706/2806 34006KT P6SM VCSH SCT030 BKN060
     FM270900 VRB04KT P6SM VCFG FEW004 SCT080
     FM271600 VRB05KT P6SM VCSH SCT050 BKN080
     FM272000 VRB10G17KT P6SM VCTS SCT040 OVC060CB
     FM280300 34007KT P6SM VCSH SCT035 BKN060=



000
FTUS45 KRIW 270500
TAFCPR
TAF
KCPR 270537Z 2706/2806 23007KT P6SM -SHRA BKN050
     FM270900 24011KT P6SM SCT040 BKN100
     FM272200 VRB12G18KT P6SM VCTS SCT040 BKN070CB
     FM280400 23008KT P6SM VCSH SCT050 BKN080=



000
FTUS45 KRIW 270500
TAFCOD
TAF
KCOD 270537Z 2706/2806 19006KT P6SM SCT070 BKN100
     FM271700 03008KT P6SM VCSH SCT050 BKN080
     FM272100 VRB12G18KT P6SM VCTS SCT040 BKN070CB
     FM280300 VRB06KT P6SM VCSH SCT050 OVC080
      AMD LTD TO CLD VIS AND WIND=



000
FTUS45 KRIW 270500
TAFJAC
TAF
KJAC 270537Z 2706/2806 VRB05KT P6SM VCSH SCT030 OVC050
      TEMPO 2707/2709 6SM -SHRA BKN025
     FM271000 VRB04KT P6SM VCFG SCT005 SCT060
     FM271600 20009KT P6SM VCSH SCT040 BKN070
     FM271900 VRB10G17KT P6SM VCTS SCT040 BKN060CB
     FM280300 VRB05KT P6SM VCSH SCT030 BKN060
      AMD LTD TO CLD VIS AND WIND=



000
FTUS45 KRIW 270500
TAFRKS
TAF
KRKS 270537Z 2706/2806 24008KT P6SM VCSH SCT030 BKN060
     FM270800 22006KT P6SM VCFG FEW005 SCT060
     FM271500 28008KT P6SM FEW060 SCT100
     FM272000 VRB12G18KT P6SM VCTS SCT035 BKN060CB
     FM280200 24007KT P6SM VCSH BKN060=



000
FTUS45 KRIW 270500
TAFWRL
TAF
KWRL 270537Z 2706/2806 35007KT P6SM VCSH SCT045 BKN080
     FM270900 VRB04KT P6SM VCFG FEW005 SCT090
     FM271400 VRB06KT P6SM FEW020 SCT080
     FM272100 VRB10G16KT P6SM VCSH SCT040 BKN080
     FM280300 VRB06KT P6SM VCSH SCT050 BKN080=



000
FTUS45 KRIW 270500
TAFJAC
TAF
KJAC 270537Z 2706/2806 VRB05KT P6SM VCSH SCT030 OVC050
      TEMPO 2707/2709 6SM -SHRA BKN025
     FM271000 VRB04KT P6SM VCFG SCT005 SCT060
     FM271600 20009KT P6SM VCSH SCT040 BKN070
     FM271900 VRB10G17KT P6SM VCTS SCT040 BKN060CB
     FM280300 VRB05KT P6SM VCSH SCT030 BKN060
      AMD LTD TO CLD VIS AND WIND=



000
FTUS45 KRIW 270500
TAFLND
TAF
KLND 270537Z 2706/2806 23007KT P6SM FEW050 SCT080
     FM271700 VRB05KT P6SM VCSH SCT040 BKN080
     FM272200 VRB12G18KT P6SM VCTS SCT040 BKN070CB
     FM280300 23007KT P6SM VCSH BKN070=



000
FTUS45 KRIW 270500
TAFRIW
TAF
KRIW 270537Z 2706/2806 VRB06KT P6SM VCSH SCT040 BKN060
     FM270700 VRB05KT P6SM FEW015 SCT080
     FM272000 VRB10G16KT P6SM VCTS SCT040 BKN070CB
     FM280400 31006KT P6SM VCSH SCT050 BKN080=



000
FTUS45 KRIW 270500
TAFCPR
TAF
KCPR 270537Z 2706/2806 23007KT P6SM -SHRA BKN050
     FM270900 24011KT P6SM SCT040 BKN100
     FM272200 VRB12G18KT P6SM VCTS SCT040 BKN070CB
     FM280400 23008KT P6SM VCSH SCT050 BKN080=



000
FTUS45 KRIW 270500
TAFBPI
TAF
KBPI 270537Z 2706/2806 34006KT P6SM VCSH SCT030 BKN060
     FM270900 VRB04KT P6SM VCFG FEW004 SCT080
     FM271600 VRB05KT P6SM VCSH SCT050 BKN080
     FM272000 VRB10G17KT P6SM VCTS SCT040 OVC060CB
     FM280300 34007KT P6SM VCSH SCT035 BKN060=



000
FTUS45 KRIW 270500
TAFCOD
TAF
KCOD 270537Z 2706/2806 19006KT P6SM SCT070 BKN100
     FM271700 03008KT P6SM VCSH SCT050 BKN080
     FM272100 VRB12G18KT P6SM VCTS SCT040 BKN070CB
     FM280300 VRB06KT P6SM VCSH SCT050 OVC080
      AMD LTD TO CLD VIS AND WIND=



000
FTUS45 KRIW 262300
TAFRIW
TAF
KRIW 262320Z 2700/2724 VRB10G18KT P6SM -TSRA SCT040 OVC060CB
     FM270100 VRB06KT P6SM VCSH BKN070
     FM271200 VRB06KT P6SM FEW050 SCT080
     FM272000 VRB10G16KT P6SM VCSH SCT040 BKN070=



000
FTUS45 KRIW 262300
TAFBPI
TAF
KBPI 262320Z 2700/2724 VRB10G18KT P6SM VCTS SCT035 BKN060CB
     FM270200 34007KT P6SM VCSH BKN060
     FM270700 VRB04KT P6SM VCFG FEW004 SCT080
     FM271600 VRB05KT P6SM BKN070 OVC100
     FM272000 VRB12G18KT P6SM VCTS SCT040CB BKN070=



000
FTUS45 KRIW 262300
TAFWRL
TAF
KWRL 262320Z 2700/2724 35007KT P6SM VCSH SCT050 BKN080
     FM271400 VRB06KT P6SM FEW020 SCT080
     FM272100 VRB10G16KT P6SM VCSH SCT040 BKN080=



000
FTUS45 KRIW 262300
TAFRKS
TAF
KRKS 262320Z 2700/2724 VRB10G18KT P6SM -TSRA SCT030 BKN060CB
     FM270130 24008KT P6SM VCSH SCT030 BKN060
     FM270800 22006KT P6SM VCFG FEW005 SCT060
     FM271500 28008KT P6SM FEW060 SCT100
     FM272000 VRB12G18KT P6SM VCSH SCT040 BKN080=



000
FTUS45 KRIW 262300
TAFLND
TAF
KLND 262320Z 2700/2724 VRB10G16KT P6SM VCTS SCT040 BKN060CB
     FM270200 25007KT P6SM VCSH BKN050
     FM271000 VRB05KT P6SM FEW050 SCT100
     FM271700 VRB05KT P6SM VCSH SCT040 BKN080
     FM272000 VRB12G18KT P6SM VCTS SCT040CB BKN070=



000
FTUS45 KRIW 262300
TAFCOD
TAF
KCOD 262320Z 2700/2724 VRB10G15KT P6SM -TSRA SCT040 BKN060CB
     FM270130 VRB06KT P6SM VCSH BKN060
     FM270400 21006KT P6SM SCT070 BKN100
     FM271700 VRB10G15KT P6SM VCSH SCT050 BKN080
     FM272100 VRB12G18KT P6SM VCTS SCT040CB BKN070
      AMD LTD TO CLD VIS AND WIND=



000
FTUS45 KRIW 262300
TAFCPR
TAF
KCPR 262320Z 2700/2724 VRB10G18KT P6SM VCTS SCT040 BKN060CB
     FM270400 24007KT P6SM VCSH BKN050
     FM271300 24012KT P6SM SCT040 BKN100
     FM272000 VRB12G18KT P6SM VCTS SCT040CB BKN070=



000
FTUS45 KRIW 262300
TAFJAC
TAF
KJAC 262320Z 2700/2724 VRB10G16KT P6SM VCTS SCT030 BKN050CB
     FM270200 21008KT P6SM VCSH SCT030 BKN050
     FM270600 36005KT P6SM VCFG FEW004 SCT060
     FM271600 VRB05KT P6SM VCSH SCT040 BKN070
     FM271900 VRB12G18KT P6SM VCTS SCT040CB BKN070
      AMD LTD TO CLD VIS AND WIND=



000
FTUS45 KRIW 261800 AAA
TAFCPR
TAF AMD
KCPR 261805Z 2618/2718 VRB10G18KT P6SM VCTS BKN060CB
     FM270400 24007KT P6SM VCSH BKN050
     FM271300 24012KT P6SM SCT040 BKN100=



000
FTUS45 KRIW 261800 AAA
TAFCPR
TAF AMD
KCPR 261805Z 2618/2718 VRB10G18KT P6SM VCTS BKN060CB
     FM270400 24007KT P6SM VCSH BKN050
     FM271300 24012KT P6SM SCT040 BKN100=



000
FTUS45 KRIW 261700
TAFCOD
TAF
KCOD 261720Z 2618/2718 03007KT P6SM VCSH SCT050 BKN080
     FM262100 VRB10G15KT P6SM VCTS SCT040CB BKN070
     FM270400 21006KT P6SM SCT070 BKN100
     FM271700 VRB10G15KT P6SM VCSH SCT050 BKN080
      AMD LTD TO CLD VIS AND WIND=



000
FTUS45 KRIW 261700
TAFRKS
TAF
KRKS 261720Z 2618/2718 26008KT P6SM VCSH SCT030 BKN060
     FM262100 VRB10G18KT P6SM VCTS SCT030 BKN060CB
     FM270200 24008KT P6SM VCSH SCT030 BKN060
     FM270800 22006KT P6SM VCFG FEW005 SCT060
     FM271500 28008KT P6SM FEW060 SCT100=



000
FTUS45 KRIW 261700
TAFBPI
TAF
KBPI 261720Z 2618/2718 VRB06KT P6SM VCSH SCT040 BKN060
     FM262100 VRB10G18KT P6SM VCTS SCT040 BKN060CB
     FM270200 34007KT P6SM VCSH BKN060
     FM270700 VRB04KT P6SM VCFG FEW004 SCT080
     FM271600 VRB05KT P6SM BKN070 OVC100=



000
FTUS45 KRIW 261700
TAFCPR
TAF
KCPR 261720Z 2618/2718 23009KT P6SM VCSH SCT050 BKN080
     FM262200 VRB10G18KT P6SM VCTS BKN060CB
     FM270400 24007KT P6SM VCSH BKN050
     FM271300 24012KT P6SM SCT040 BKN100=



000
FTUS45 KRIW 261700
TAFJAC
TAF
KJAC 261720Z 2618/2718 19007KT P6SM VCSH SCT040 BKN070
     FM262000 VRB10G18KT P6SM VCTS SCT040 BKN070CB
     FM270200 21008KT P6SM VCSH SCT060 BKN090
     FM270600 36005KT P6SM VCFG FEW004 SCT090
     FM271600 VRB05KT P6SM VCSH SCT040 BKN070
      AMD LTD TO CLD VIS AND WIND=



000
FTUS45 KRIW 261700
TAFLND
TAF
KLND 261720Z 2618/2718 VRB05KT P6SM SCT080
     FM262100 VRB10KT P6SM VCTS SCT050 BKN080CB
     FM270200 25007KT P6SM VCSH BKN050
     FM271000 VRB05KT P6SM FEW050 SCT100
     FM271700 VRB05KT P6SM VCSH SCT040 BKN080=



000
FTUS45 KRIW 261700
TAFWRL
TAF
KWRL 261720Z 2618/2718 VRB06KT P6SM SCT080
     FM262000 35007KT P6SM VCSH SCT050 BKN080
     FM271400 VRB06KT P6SM FEW020 SCT080=



000
FTUS45 KRIW 261700
TAFRIW
TAF
KRIW 261720Z 2618/2718 VRB06KT P6SM SCT080
     FM262200 34007KT P6SM VCSH SCT050 BKN080
     FM271200 VRB06KT P6SM FEW050 SCT080=



    US Dept of Commerce
    National Oceanic and Atmospheric Administration
    National Weather Service
    1325 East West Highway
    Silver Spring, MD 20910
    Page Author: NWS Internet Services Team
Disclaimer
Information Quality
Credits
Glossary
Privacy Policy
Freedom of Information Act (FOIA)
About Us
Career Opportunities